sensor_id;sensor_type;location;lat;lon;timestamp;P1;durP1;ratioP1;P2;durP2;ratioP2
19861;SDS011;10093;48.148;8.542;2023-02-15T00:01:28;22.65;;;11.25;;
19861;SDS011;10093;48.148;8.542;2023-02-15T00:03:54;20.27;;;10.88;;
19861;SDS011;10093;48.148;8.542;2023-02-15T00:06:19;24.88;;;12.32;;
19861;SDS011;10093;48.148;8.542;2023-02-15T00:08:45;23.92;;;11.70;;
19861;SDS011;10093;48.148;8.542;2023-02-15T00:11:12;23.38;;;11.57;;
19861;SDS011;10093;48.148;8.542;2023-02-15T00:13:40;22.85;;;12.07;;
19861;SDS011;10093;48.148;8.542;2023-02-15T00:16:09;22.80;;;11.50;;
19861;SDS011;10093;48.148;8.542;2023-02-15T00:18:37;27.50;;;13.00;;
19861;SDS011;10093;48.148;8.542;2023-02-15T00:21:08;23.20;;;12.13;;
19861;SDS011;10093;48.148;8.542;2023-02-15T00:23:35;24.08;;;11.52;;
19861;SDS011;10093;48.148;8.542;2023-02-15T00:26:08;23.23;;;12.02;;
19861;SDS011;10093;48.148;8.542;2023-02-15T00:28:36;23.73;;;11.90;;
19861;SDS011;10093;48.148;8.542;2023-02-15T00:31:03;26.17;;;12.60;;
19861;SDS011;10093;48.148;8.542;2023-02-15T00:33:32;27.85;;;13.15;;
19861;SDS011;10093;48.148;8.542;2023-02-15T00:35:59;26.10;;;12.32;;
19861;SDS011;10093;48.148;8.542;2023-02-15T00:38:26;24.90;;;12.57;;
19861;SDS011;10093;48.148;8.542;2023-02-15T00:40:59;26.27;;;11.75;;
19861;SDS011;10093;48.148;8.542;2023-02-15T00:43:26;24.38;;;11.18;;
19861;SDS011;10093;48.148;8.542;2023-02-15T00:45:53;23.15;;;11.20;;
19861;SDS011;10093;48.148;8.542;2023-02-15T00:48:18;22.45;;;10.80;;
19861;SDS011;10093;48.148;8.542;2023-02-15T00:50:45;21.20;;;10.85;;
19861;SDS011;10093;48.148;8.542;2023-02-15T00:53:12;20.77;;;10.80;;
19861;SDS011;10093;48.148;8.542;2023-02-15T00:55:38;17.67;;;9.57;;
19861;SDS011;10093;48.148;8.542;2023-02-15T00:58:05;20.55;;;10.35;;
19861;SDS011;10093;48.148;8.542;2023-02-15T01:00:34;19.83;;;8.85;;
19861;SDS011;10093;48.148;8.542;2023-02-15T01:03:00;19.30;;;9.35;;
19861;SDS011;10093;48.148;8.542;2023-02-15T01:05:26;17.55;;;8.73;;
19861;SDS011;10093;48.148;8.542;2023-02-15T01:07:52;16.42;;;9.18;;
19861;SDS011;10093;48.148;8.542;2023-02-15T01:10:17;17.02;;;8.45;;
19861;SDS011;10093;48.148;8.542;2023-02-15T01:12:43;14.95;;;8.35;;
19861;SDS011;10093;48.148;8.542;2023-02-15T01:15:09;16.55;;;8.00;;
19861;SDS011;10093;48.148;8.542;2023-02-15T01:17:35;17.38;;;8.13;;
19861;SDS011;10093;48.148;8.542;2023-02-15T01:20:00;18.48;;;8.75;;
19861;SDS011;10093;48.148;8.542;2023-02-15T01:22:26;14.43;;;7.57;;
19861;SDS011;10093;48.148;8.542;2023-02-15T01:24:52;16.85;;;8.05;;
19861;SDS011;10093;48.148;8.542;2023-02-15T01:27:18;14.98;;;7.70;;
19861;SDS011;10093;48.148;8.542;2023-02-15T01:29:43;15.05;;;8.10;;
19861;SDS011;10093;48.148;8.542;2023-02-15T01:32:09;18.52;;;8.57;;
19861;SDS011;10093;48.148;8.542;2023-02-15T01:34:34;14.00;;;7.70;;
19861;SDS011;10093;48.148;8.542;2023-02-15T01:37:00;17.17;;;8.93;;
19861;SDS011;10093;48.148;8.542;2023-02-15T01:39:26;16.52;;;8.35;;
19861;SDS011;10093;48.148;8.542;2023-02-15T01:41:51;14.80;;;7.82;;
19861;SDS011;10093;48.148;8.542;2023-02-15T01:50:34;17.20;;;8.90;;
19861;SDS011;10093;48.148;8.542;2023-02-15T01:53:24;17.30;;;7.90;;
19861;SDS011;10093;48.148;8.542;2023-02-15T01:55:55;15.13;;;8.38;;
19861;SDS011;10093;48.148;8.542;2023-02-15T01:58:24;18.73;;;8.77;;
19861;SDS011;10093;48.148;8.542;2023-02-15T02:00:52;16.98;;;8.27;;
19861;SDS011;10093;48.148;8.542;2023-02-15T02:03:20;15.32;;;8.48;;
19861;SDS011;10093;48.148;8.542;2023-02-15T02:06:09;15.85;;;8.25;;
19861;SDS011;10093;48.148;8.542;2023-02-15T02:08:35;19.88;;;9.02;;
19861;SDS011;10093;48.148;8.542;2023-02-15T02:11:01;16.67;;;8.77;;
19861;SDS011;10093;48.148;8.542;2023-02-15T02:13:26;14.90;;;8.25;;
19861;SDS011;10093;48.148;8.542;2023-02-15T02:16:00;16.20;;;8.30;;
19861;SDS011;10093;48.148;8.542;2023-02-15T02:21:25;17.83;;;8.75;;
19861;SDS011;10093;48.148;8.542;2023-02-15T02:29:55;15.95;;;8.20;;
19861;SDS011;10093;48.148;8.542;2023-02-15T02:35:44;13.65;;;8.48;;
19861;SDS011;10093;48.148;8.542;2023-02-15T02:43:33;21.67;;;8.85;;
19861;SDS011;10093;48.148;8.542;2023-02-15T02:46:07;17.77;;;8.57;;
19861;SDS011;10093;48.148;8.542;2023-02-15T02:48:44;14.73;;;7.57;;
19861;SDS011;10093;48.148;8.542;2023-02-15T02:51:10;15.43;;;8.35;;
19861;SDS011;10093;48.148;8.542;2023-02-15T02:53:36;18.73;;;8.13;;
19861;SDS011;10093;48.148;8.542;2023-02-15T02:58:48;15.43;;;7.75;;
19861;SDS011;10093;48.148;8.542;2023-02-15T03:01:26;14.15;;;7.10;;
19861;SDS011;10093;48.148;8.542;2023-02-15T03:03:57;13.88;;;7.43;;
19861;SDS011;10093;48.148;8.542;2023-02-15T03:06:30;14.88;;;7.40;;
19861;SDS011;10093;48.148;8.542;2023-02-15T03:09:09;15.77;;;7.88;;
19861;SDS011;10093;48.148;8.542;2023-02-15T03:11:50;12.90;;;6.75;;
19861;SDS011;10093;48.148;8.542;2023-02-15T03:14:16;14.35;;;6.47;;
19861;SDS011;10093;48.148;8.542;2023-02-15T03:16:44;17.85;;;7.28;;
19861;SDS011;10093;48.148;8.542;2023-02-15T03:19:17;12.98;;;6.93;;
19861;SDS011;10093;48.148;8.542;2023-02-15T03:21:49;17.00;;;6.95;;
19861;SDS011;10093;48.148;8.542;2023-02-15T03:25:06;15.60;;;7.35;;
19861;SDS011;10093;48.148;8.542;2023-02-15T03:27:22;11.07;;;6.05;;
19861;SDS011;10093;48.148;8.542;2023-02-15T03:29:56;12.40;;;6.50;;
19861;SDS011;10093;48.148;8.542;2023-02-15T03:32:24;14.35;;;6.82;;
19861;SDS011;10093;48.148;8.542;2023-02-15T03:34:53;12.02;;;6.40;;
19861;SDS011;10093;48.148;8.542;2023-02-15T03:37:23;13.52;;;7.10;;
19861;SDS011;10093;48.148;8.542;2023-02-15T03:40:04;14.70;;;7.03;;
19861;SDS011;10093;48.148;8.542;2023-02-15T03:45:50;12.93;;;6.45;;
19861;SDS011;10093;48.148;8.542;2023-02-15T03:48:24;11.48;;;6.32;;
19861;SDS011;10093;48.148;8.542;2023-02-15T03:51:06;12.98;;;6.38;;
19861;SDS011;10093;48.148;8.542;2023-02-15T03:53:54;14.38;;;7.20;;
19861;SDS011;10093;48.148;8.542;2023-02-15T03:56:22;14.57;;;6.32;;
19861;SDS011;10093;48.148;8.542;2023-02-15T03:58:47;11.50;;;6.43;;
19861;SDS011;10093;48.148;8.542;2023-02-15T04:01:36;12.43;;;6.53;;
19861;SDS011;10093;48.148;8.542;2023-02-15T04:04:22;13.52;;;7.53;;
19861;SDS011;10093;48.148;8.542;2023-02-15T04:06:51;15.13;;;7.38;;
19861;SDS011;10093;48.148;8.542;2023-02-15T04:09:17;10.55;;;6.43;;
19861;SDS011;10093;48.148;8.542;2023-02-15T04:12:01;12.63;;;6.90;;
19861;SDS011;10093;48.148;8.542;2023-02-15T04:14:26;13.63;;;5.82;;
19861;SDS011;10093;48.148;8.542;2023-02-15T04:17:10;13.07;;;6.30;;
19861;SDS011;10093;48.148;8.542;2023-02-15T04:19:36;12.43;;;6.30;;
19861;SDS011;10093;48.148;8.542;2023-02-15T04:22:20;12.13;;;5.90;;
19861;SDS011;10093;48.148;8.542;2023-02-15T04:25:04;12.15;;;6.05;;
19861;SDS011;10093;48.148;8.542;2023-02-15T04:27:47;10.20;;;6.03;;
19861;SDS011;10093;48.148;8.542;2023-02-15T04:30:14;13.60;;;6.70;;
19861;SDS011;10093;48.148;8.542;2023-02-15T04:32:43;11.75;;;6.10;;
19861;SDS011;10093;48.148;8.542;2023-02-15T04:35:08;12.05;;;6.20;;
19861;SDS011;10093;48.148;8.542;2023-02-15T04:37:34;12.38;;;6.63;;
19861;SDS011;10093;48.148;8.542;2023-02-15T04:40:00;11.65;;;6.32;;
19861;SDS011;10093;48.148;8.542;2023-02-15T04:42:27;12.18;;;6.28;;
19861;SDS011;10093;48.148;8.542;2023-02-15T04:44:53;14.48;;;7.07;;
19861;SDS011;10093;48.148;8.542;2023-02-15T04:47:19;10.20;;;6.20;;
19861;SDS011;10093;48.148;8.542;2023-02-15T04:49:45;11.73;;;6.55;;
19861;SDS011;10093;48.148;8.542;2023-02-15T04:52:10;10.43;;;5.72;;
19861;SDS011;10093;48.148;8.542;2023-02-15T04:54:36;10.05;;;5.70;;
19861;SDS011;10093;48.148;8.542;2023-02-15T04:57:03;9.55;;;5.50;;
19861;SDS011;10093;48.148;8.542;2023-02-15T04:59:29;12.93;;;5.85;;
19861;SDS011;10093;48.148;8.542;2023-02-15T05:01:54;11.93;;;6.00;;
19861;SDS011;10093;48.148;8.542;2023-02-15T05:04:20;10.85;;;5.53;;
19861;SDS011;10093;48.148;8.542;2023-02-15T05:06:46;9.98;;;5.55;;
19861;SDS011;10093;48.148;8.542;2023-02-15T05:09:11;9.05;;;5.18;;
19861;SDS011;10093;48.148;8.542;2023-02-15T05:11:37;9.30;;;5.13;;
19861;SDS011;10093;48.148;8.542;2023-02-15T05:14:03;9.60;;;5.35;;
19861;SDS011;10093;48.148;8.542;2023-02-15T05:16:29;11.48;;;5.95;;
19861;SDS011;10093;48.148;8.542;2023-02-15T05:18:54;11.93;;;6.13;;
19861;SDS011;10093;48.148;8.542;2023-02-15T05:21:20;12.05;;;5.93;;
19861;SDS011;10093;48.148;8.542;2023-02-15T05:23:46;11.57;;;5.80;;
19861;SDS011;10093;48.148;8.542;2023-02-15T05:26:12;9.57;;;4.90;;
19861;SDS011;10093;48.148;8.542;2023-02-15T05:28:59;11.63;;;5.22;;
19861;SDS011;10093;48.148;8.542;2023-02-15T05:31:24;9.20;;;5.28;;
19861;SDS011;10093;48.148;8.542;2023-02-15T05:33:50;12.05;;;5.43;;
19861;SDS011;10093;48.148;8.542;2023-02-15T05:36:16;10.82;;;5.40;;
19861;SDS011;10093;48.148;8.542;2023-02-15T05:38:41;10.00;;;5.20;;
19861;SDS011;10093;48.148;8.542;2023-02-15T05:41:08;9.25;;;4.95;;
19861;SDS011;10093;48.148;8.542;2023-02-15T05:43:34;10.77;;;5.38;;
19861;SDS011;10093;48.148;8.542;2023-02-15T05:46:00;12.18;;;5.28;;
19861;SDS011;10093;48.148;8.542;2023-02-15T05:48:26;9.65;;;5.32;;
19861;SDS011;10093;48.148;8.542;2023-02-15T05:53:28;11.20;;;5.47;;
19861;SDS011;10093;48.148;8.542;2023-02-15T05:55:55;10.30;;;5.35;;
19861;SDS011;10093;48.148;8.542;2023-02-15T05:58:26;9.70;;;5.25;;
19861;SDS011;10093;48.148;8.542;2023-02-15T06:00:57;9.25;;;5.10;;
19861;SDS011;10093;48.148;8.542;2023-02-15T06:03:23;12.73;;;5.90;;
19861;SDS011;10093;48.148;8.542;2023-02-15T06:05:50;21.85;;;8.77;;
19861;SDS011;10093;48.148;8.542;2023-02-15T06:08:16;10.95;;;6.10;;
19861;SDS011;10093;48.148;8.542;2023-02-15T06:10:42;11.10;;;5.47;;
19861;SDS011;10093;48.148;8.542;2023-02-15T06:13:09;9.93;;;5.30;;
19861;SDS011;10093;48.148;8.542;2023-02-15T06:15:35;8.18;;;5.25;;
19861;SDS011;10093;48.148;8.542;2023-02-15T06:18:01;8.93;;;5.00;;
19861;SDS011;10093;48.148;8.542;2023-02-15T06:20:27;9.63;;;5.13;;
19861;SDS011;10093;48.148;8.542;2023-02-15T06:22:52;9.98;;;4.93;;
19861;SDS011;10093;48.148;8.542;2023-02-15T06:25:18;8.80;;;5.05;;
19861;SDS011;10093;48.148;8.542;2023-02-15T06:27:43;10.13;;;5.50;;
19861;SDS011;10093;48.148;8.542;2023-02-15T06:30:09;12.10;;;6.03;;
19861;SDS011;10093;48.148;8.542;2023-02-15T06:32:35;12.45;;;5.63;;
19861;SDS011;10093;48.148;8.542;2023-02-15T06:35:01;8.88;;;4.80;;
19861;SDS011;10093;48.148;8.542;2023-02-15T06:37:27;12.48;;;5.90;;
19861;SDS011;10093;48.148;8.542;2023-02-15T06:39:53;10.52;;;5.97;;
19861;SDS011;10093;48.148;8.542;2023-02-15T06:42:18;8.38;;;4.97;;
19861;SDS011;10093;48.148;8.542;2023-02-15T06:44:44;10.50;;;5.45;;
19861;SDS011;10093;48.148;8.542;2023-02-15T06:47:10;9.05;;;5.60;;
19861;SDS011;10093;48.148;8.542;2023-02-15T06:49:36;11.25;;;5.97;;
19861;SDS011;10093;48.148;8.542;2023-02-15T06:52:02;13.13;;;6.50;;
19861;SDS011;10093;48.148;8.542;2023-02-15T06:54:28;25.35;;;10.25;;
19861;SDS011;10093;48.148;8.542;2023-02-15T06:56:54;28.30;;;12.18;;
19861;SDS011;10093;48.148;8.542;2023-02-15T06:59:19;24.58;;;11.90;;
19861;SDS011;10093;48.148;8.542;2023-02-15T07:01:45;33.78;;;15.68;;
19861;SDS011;10093;48.148;8.542;2023-02-15T07:04:10;25.17;;;12.55;;
19861;SDS011;10093;48.148;8.542;2023-02-15T07:06:36;16.10;;;8.23;;
19861;SDS011;10093;48.148;8.542;2023-02-15T07:09:02;12.18;;;6.90;;
19861;SDS011;10093;48.148;8.542;2023-02-15T07:11:30;9.95;;;5.45;;
19861;SDS011;10093;48.148;8.542;2023-02-15T07:16:40;9.55;;;4.90;;
19861;SDS011;10093;48.148;8.542;2023-02-15T07:19:05;7.13;;;4.25;;
19861;SDS011;10093;48.148;8.542;2023-02-15T07:21:32;9.15;;;5.28;;
19861;SDS011;10093;48.148;8.542;2023-02-15T07:23:58;9.38;;;5.20;;
19861;SDS011;10093;48.148;8.542;2023-02-15T07:26:24;10.50;;;5.68;;
19861;SDS011;10093;48.148;8.542;2023-02-15T07:28:50;10.30;;;5.57;;
19861;SDS011;10093;48.148;8.542;2023-02-15T07:31:16;12.10;;;5.72;;
19861;SDS011;10093;48.148;8.542;2023-02-15T07:33:41;9.43;;;5.70;;
19861;SDS011;10093;48.148;8.542;2023-02-15T07:36:07;9.70;;;5.13;;
19861;SDS011;10093;48.148;8.542;2023-02-15T07:38:36;9.63;;;5.88;;
19861;SDS011;10093;48.148;8.542;2023-02-15T07:41:05;10.85;;;5.28;;
19861;SDS011;10093;48.148;8.542;2023-02-15T07:43:33;9.52;;;4.82;;
19861;SDS011;10093;48.148;8.542;2023-02-15T07:46:03;7.30;;;4.40;;
19861;SDS011;10093;48.148;8.542;2023-02-15T07:48:34;7.28;;;4.63;;
19861;SDS011;10093;48.148;8.542;2023-02-15T07:51:00;6.53;;;4.40;;
19861;SDS011;10093;48.148;8.542;2023-02-15T07:53:27;7.93;;;4.60;;
19861;SDS011;10093;48.148;8.542;2023-02-15T07:55:53;7.65;;;4.70;;
19861;SDS011;10093;48.148;8.542;2023-02-15T07:58:20;7.20;;;3.75;;
19861;SDS011;10093;48.148;8.542;2023-02-15T08:00:46;6.03;;;4.05;;
19861;SDS011;10093;48.148;8.542;2023-02-15T08:03:26;6.47;;;4.45;;
19861;SDS011;10093;48.148;8.542;2023-02-15T08:05:57;7.50;;;4.30;;
19861;SDS011;10093;48.148;8.542;2023-02-15T08:08:24;7.88;;;4.82;;
19861;SDS011;10093;48.148;8.542;2023-02-15T08:13:49;10.63;;;5.43;;
19861;SDS011;10093;48.148;8.542;2023-02-15T08:19:12;9.73;;;5.70;;
19861;SDS011;10093;48.148;8.542;2023-02-15T08:21:42;8.75;;;5.25;;
19861;SDS011;10093;48.148;8.542;2023-02-15T08:24:10;9.25;;;5.35;;
19861;SDS011;10093;48.148;8.542;2023-02-15T08:26:37;11.73;;;6.00;;
19861;SDS011;10093;48.148;8.542;2023-02-15T08:29:06;12.38;;;5.63;;
19861;SDS011;10093;48.148;8.542;2023-02-15T08:31:33;9.73;;;5.30;;
19861;SDS011;10093;48.148;8.542;2023-02-15T08:34:00;6.68;;;4.88;;
19861;SDS011;10093;48.148;8.542;2023-02-15T08:36:27;11.15;;;5.07;;
19861;SDS011;10093;48.148;8.542;2023-02-15T08:38:54;8.80;;;5.38;;
19861;SDS011;10093;48.148;8.542;2023-02-15T08:43:50;9.13;;;5.47;;
19861;SDS011;10093;48.148;8.542;2023-02-15T08:46:18;6.95;;;4.82;;
19861;SDS011;10093;48.148;8.542;2023-02-15T08:48:45;10.48;;;4.88;;
19861;SDS011;10093;48.148;8.542;2023-02-15T08:53:39;10.15;;;5.45;;
19861;SDS011;10093;48.148;8.542;2023-02-15T08:56:06;8.88;;;5.22;;
19861;SDS011;10093;48.148;8.542;2023-02-15T08:58:33;7.80;;;4.53;;
19861;SDS011;10093;48.148;8.542;2023-02-15T09:00:59;6.78;;;4.70;;
19861;SDS011;10093;48.148;8.542;2023-02-15T09:03:27;4.95;;;3.90;;
19861;SDS011;10093;48.148;8.542;2023-02-15T09:05:56;6.65;;;4.72;;
19861;SDS011;10093;48.148;8.542;2023-02-15T09:08:25;7.10;;;4.78;;
19861;SDS011;10093;48.148;8.542;2023-02-15T09:10:52;6.72;;;4.65;;
19861;SDS011;10093;48.148;8.542;2023-02-15T09:13:18;10.80;;;5.70;;
19861;SDS011;10093;48.148;8.542;2023-02-15T09:15:43;9.90;;;5.20;;
19861;SDS011;10093;48.148;8.542;2023-02-15T09:18:09;10.18;;;5.07;;
19861;SDS011;10093;48.148;8.542;2023-02-15T09:20:36;6.32;;;4.53;;
19861;SDS011;10093;48.148;8.542;2023-02-15T09:23:02;8.13;;;5.13;;
19861;SDS011;10093;48.148;8.542;2023-02-15T09:25:28;11.68;;;5.60;;
19861;SDS011;10093;48.148;8.542;2023-02-15T09:27:53;9.80;;;5.70;;
19861;SDS011;10093;48.148;8.542;2023-02-15T09:30:19;9.20;;;5.88;;
19861;SDS011;10093;48.148;8.542;2023-02-15T09:32:45;9.02;;;6.43;;
19861;SDS011;10093;48.148;8.542;2023-02-15T09:35:12;9.35;;;5.50;;
19861;SDS011;10093;48.148;8.542;2023-02-15T09:37:37;9.07;;;5.70;;
19861;SDS011;10093;48.148;8.542;2023-02-15T09:40:03;7.97;;;6.28;;
19861;SDS011;10093;48.148;8.542;2023-02-15T10:04:43;8.48;;;4.97;;
19861;SDS011;10093;48.148;8.542;2023-02-15T10:21:14;10.52;;;5.20;;
19861;SDS011;10093;48.148;8.542;2023-02-15T10:28:55;14.18;;;8.63;;
19861;SDS011;10093;48.148;8.542;2023-02-15T10:31:46;15.32;;;8.50;;
19861;SDS011;10093;48.148;8.542;2023-02-15T10:34:20;16.25;;;9.15;;
19861;SDS011;10093;48.148;8.542;2023-02-15T10:51:00;19.95;;;12.20;;
19861;SDS011;10093;48.148;8.542;2023-02-15T10:58:40;18.83;;;11.68;;
19861;SDS011;10093;48.148;8.542;2023-02-15T11:01:27;20.40;;;11.40;;
19861;SDS011;10093;48.148;8.542;2023-02-15T11:04:16;20.02;;;11.63;;
19861;SDS011;10093;48.148;8.542;2023-02-15T11:06:55;21.45;;;10.73;;
19861;SDS011;10093;48.148;8.542;2023-02-15T11:09:36;22.23;;;11.63;;
19861;SDS011;10093;48.148;8.542;2023-02-15T11:12:08;16.52;;;11.15;;
19861;SDS011;10093;48.148;8.542;2023-02-15T11:17:12;16.90;;;10.25;;
19861;SDS011;10093;48.148;8.542;2023-02-15T11:22:43;20.17;;;10.60;;
19861;SDS011;10093;48.148;8.542;2023-02-15T11:25:30;12.82;;;9.18;;
19861;SDS011;10093;48.148;8.542;2023-02-15T11:27:57;14.15;;;8.85;;
19861;SDS011;10093;48.148;8.542;2023-02-15T11:30:27;12.48;;;7.80;;
19861;SDS011;10093;48.148;8.542;2023-02-15T11:33:02;11.35;;;8.07;;
19861;SDS011;10093;48.148;8.542;2023-02-15T11:38:01;10.85;;;7.10;;
19861;SDS011;10093;48.148;8.542;2023-02-15T11:40:52;11.25;;;7.97;;
19861;SDS011;10093;48.148;8.542;2023-02-15T11:46:08;11.82;;;6.68;;
19861;SDS011;10093;48.148;8.542;2023-02-15T11:48:37;8.43;;;6.28;;
19861;SDS011;10093;48.148;8.542;2023-02-15T11:51:03;4.80;;;3.65;;
19861;SDS011;10093;48.148;8.542;2023-02-15T11:53:31;2.58;;;1.38;;
19861;SDS011;10093;48.148;8.542;2023-02-15T11:55:58;8.70;;;3.35;;
19861;SDS011;10093;48.148;8.542;2023-02-15T11:58:40;3.60;;;2.20;;
19861;SDS011;10093;48.148;8.542;2023-02-15T12:01:09;3.78;;;1.95;;
19861;SDS011;10093;48.148;8.542;2023-02-15T12:06:44;2.67;;;1.88;;
19861;SDS011;10093;48.148;8.542;2023-02-15T12:09:20;10.35;;;3.70;;
19861;SDS011;10093;48.148;8.542;2023-02-15T12:12:28;4.55;;;2.92;;
19861;SDS011;10093;48.148;8.542;2023-02-15T12:14:56;5.65;;;2.90;;
19861;SDS011;10093;48.148;8.542;2023-02-15T12:17:24;9.45;;;3.30;;
19861;SDS011;10093;48.148;8.542;2023-02-15T12:19:52;7.65;;;3.17;;
19861;SDS011;10093;48.148;8.542;2023-02-15T12:22:26;4.35;;;2.60;;
19861;SDS011;10093;48.148;8.542;2023-02-15T12:27:30;4.13;;;2.40;;
19861;SDS011;10093;48.148;8.542;2023-02-15T12:30:00;4.25;;;1.70;;
19861;SDS011;10093;48.148;8.542;2023-02-15T12:32:36;8.25;;;2.25;;
19861;SDS011;10093;48.148;8.542;2023-02-15T12:35:16;4.70;;;2.30;;
19861;SDS011;10093;48.148;8.542;2023-02-15T12:37:54;6.18;;;2.53;;
19861;SDS011;10093;48.148;8.542;2023-02-15T12:40:23;4.65;;;2.65;;
19861;SDS011;10093;48.148;8.542;2023-02-15T12:42:51;6.18;;;2.22;;
19861;SDS011;10093;48.148;8.542;2023-02-15T12:45:35;4.72;;;2.38;;
19861;SDS011;10093;48.148;8.542;2023-02-15T12:50:34;6.50;;;2.25;;
19861;SDS011;10093;48.148;8.542;2023-02-15T12:53:07;5.18;;;2.05;;
19861;SDS011;10093;48.148;8.542;2023-02-15T12:55:47;6.85;;;2.15;;
19861;SDS011;10093;48.148;8.542;2023-02-15T12:58:23;5.05;;;2.05;;
19861;SDS011;10093;48.148;8.542;2023-02-15T13:06:32;2.88;;;1.40;;
19861;SDS011;10093;48.148;8.542;2023-02-15T13:09:11;3.17;;;1.20;;
19861;SDS011;10093;48.148;8.542;2023-02-15T13:11:41;4.68;;;1.23;;
19861;SDS011;10093;48.148;8.542;2023-02-15T13:17:11;5.13;;;1.27;;
19861;SDS011;10093;48.148;8.542;2023-02-15T13:22:16;2.63;;;1.00;;
19861;SDS011;10093;48.148;8.542;2023-02-15T13:27:47;4.70;;;0.88;;
19861;SDS011;10093;48.148;8.542;2023-02-15T13:33:02;7.10;;;1.20;;
19861;SDS011;10093;48.148;8.542;2023-02-15T13:35:39;4.95;;;1.08;;
19861;SDS011;10093;48.148;8.542;2023-02-15T13:41:08;1.77;;;1.00;;
19861;SDS011;10093;48.148;8.542;2023-02-15T13:51:36;2.53;;;0.85;;
19861;SDS011;10093;48.148;8.542;2023-02-15T13:57:40;2.80;;;1.10;;
19861;SDS011;10093;48.148;8.542;2023-02-15T14:18:42;0.75;;;0.70;;
19861;SDS011;10093;48.148;8.542;2023-02-15T14:21:32;1.30;;;0.90;;
19861;SDS011;10093;48.148;8.542;2023-02-15T14:26:42;0.88;;;0.60;;
19861;SDS011;10093;48.148;8.542;2023-02-15T14:32:11;0.63;;;0.60;;
19861;SDS011;10093;48.148;8.542;2023-02-15T14:34:50;1.00;;;0.60;;
19861;SDS011;10093;48.148;8.542;2023-02-15T14:37:22;3.78;;;0.63;;
19861;SDS011;10093;48.148;8.542;2023-02-15T14:40:12;1.52;;;0.82;;
19861;SDS011;10093;48.148;8.542;2023-02-15T14:46:06;0.50;;;0.50;;
19861;SDS011;10093;48.148;8.542;2023-02-15T14:48:52;1.45;;;0.50;;
19861;SDS011;10093;48.148;8.542;2023-02-15T14:54:06;3.17;;;0.77;;
19861;SDS011;10093;48.148;8.542;2023-02-15T14:56:32;1.50;;;0.70;;
19861;SDS011;10093;48.148;8.542;2023-02-15T14:58:59;0.50;;;0.50;;
19861;SDS011;10093;48.148;8.542;2023-02-15T15:01:37;2.85;;;0.85;;
19861;SDS011;10093;48.148;8.542;2023-02-15T15:04:05;2.17;;;0.63;;
19861;SDS011;10093;48.148;8.542;2023-02-15T15:06:34;1.23;;;0.60;;
19861;SDS011;10093;48.148;8.542;2023-02-15T15:11:38;0.75;;;0.55;;
19861;SDS011;10093;48.148;8.542;2023-02-15T15:14:09;0.98;;;0.50;;
19861;SDS011;10093;48.148;8.542;2023-02-15T15:16:55;2.58;;;0.65;;
19861;SDS011;10093;48.148;8.542;2023-02-15T15:22:16;0.80;;;0.50;;
19861;SDS011;10093;48.148;8.542;2023-02-15T15:44:19;1.02;;;0.40;;
19861;SDS011;10093;48.148;8.542;2023-02-15T15:50:16;0.68;;;0.50;;
19861;SDS011;10093;48.148;8.542;2023-02-15T15:52:44;0.90;;;0.60;;
19861;SDS011;10093;48.148;8.542;2023-02-15T15:55:15;0.85;;;0.70;;
19861;SDS011;10093;48.148;8.542;2023-02-15T15:57:44;2.80;;;0.50;;
19861;SDS011;10093;48.148;8.542;2023-02-15T16:02:53;0.55;;;0.45;;
19861;SDS011;10093;48.148;8.542;2023-02-15T16:05:21;0.60;;;0.50;;
19861;SDS011;10093;48.148;8.542;2023-02-15T16:07:47;2.90;;;0.60;;
19861;SDS011;10093;48.148;8.542;2023-02-15T16:12:48;0.60;;;0.60;;
19861;SDS011;10093;48.148;8.542;2023-02-15T16:17:43;2.28;;;0.40;;
19861;SDS011;10093;48.148;8.542;2023-02-15T16:23:14;0.73;;;0.60;;
19861;SDS011;10093;48.148;8.542;2023-02-15T16:28:38;0.73;;;0.70;;
19861;SDS011;10093;48.148;8.542;2023-02-15T16:31:10;1.42;;;0.73;;
19861;SDS011;10093;48.148;8.542;2023-02-15T16:33:38;3.25;;;0.63;;
19861;SDS011;10093;48.148;8.542;2023-02-15T16:36:05;3.63;;;0.63;;
19861;SDS011;10093;48.148;8.542;2023-02-15T16:41:07;2.38;;;0.70;;
19861;SDS011;10093;48.148;8.542;2023-02-15T16:43:35;2.10;;;0.60;;
19861;SDS011;10093;48.148;8.542;2023-02-15T16:46:05;2.58;;;0.60;;
19861;SDS011;10093;48.148;8.542;2023-02-15T16:48:38;1.50;;;0.73;;
19861;SDS011;10093;48.148;8.542;2023-02-15T16:51:06;3.30;;;0.73;;
19861;SDS011;10093;48.148;8.542;2023-02-15T16:53:32;1.80;;;0.60;;
19861;SDS011;10093;48.148;8.542;2023-02-15T16:55:59;1.23;;;0.52;;
19861;SDS011;10093;48.148;8.542;2023-02-15T16:58:28;0.88;;;0.60;;
19861;SDS011;10093;48.148;8.542;2023-02-15T17:01:08;7.38;;;0.80;;
19861;SDS011;10093;48.148;8.542;2023-02-15T17:03:38;1.05;;;0.90;;
19861;SDS011;10093;48.148;8.542;2023-02-15T17:06:17;1.75;;;0.90;;
19861;SDS011;10093;48.148;8.542;2023-02-15T17:08:48;1.05;;;0.90;;
19861;SDS011;10093;48.148;8.542;2023-02-15T17:11:20;1.05;;;0.73;;
19861;SDS011;10093;48.148;8.542;2023-02-15T17:19:03;8.73;;;4.35;;
19861;SDS011;10093;48.148;8.542;2023-02-15T17:21:40;6.72;;;3.17;;
19861;SDS011;10093;48.148;8.542;2023-02-15T17:24:17;4.75;;;2.72;;
19861;SDS011;10093;48.148;8.542;2023-02-15T17:26:50;1.35;;;1.10;;
19861;SDS011;10093;48.148;8.542;2023-02-15T17:29:36;3.83;;;0.90;;
19861;SDS011;10093;48.148;8.542;2023-02-15T17:32:04;1.33;;;0.80;;
19861;SDS011;10093;48.148;8.542;2023-02-15T17:34:57;2.30;;;0.80;;
19861;SDS011;10093;48.148;8.542;2023-02-15T17:37:47;1.20;;;0.83;;
19861;SDS011;10093;48.148;8.542;2023-02-15T17:40:16;3.83;;;1.20;;
19861;SDS011;10093;48.148;8.542;2023-02-15T17:42:45;1.23;;;0.80;;
19861;SDS011;10093;48.148;8.542;2023-02-15T17:45:11;1.60;;;0.80;;
19861;SDS011;10093;48.148;8.542;2023-02-15T17:47:36;2.97;;;1.00;;
19861;SDS011;10093;48.148;8.542;2023-02-15T17:50:03;3.58;;;0.70;;
19861;SDS011;10093;48.148;8.542;2023-02-15T17:52:30;2.63;;;1.08;;
19861;SDS011;10093;48.148;8.542;2023-02-15T17:54:56;1.92;;;1.20;;
19861;SDS011;10093;48.148;8.542;2023-02-15T17:57:40;4.60;;;2.15;;
19861;SDS011;10093;48.148;8.542;2023-02-15T18:00:06;3.97;;;1.90;;
19861;SDS011;10093;48.148;8.542;2023-02-15T18:02:51;9.13;;;3.08;;
19861;SDS011;10093;48.148;8.542;2023-02-15T18:05:36;9.02;;;4.28;;
19861;SDS011;10093;48.148;8.542;2023-02-15T18:08:22;6.82;;;3.85;;
19861;SDS011;10093;48.148;8.542;2023-02-15T18:11:10;4.80;;;3.08;;
19861;SDS011;10093;48.148;8.542;2023-02-15T18:13:54;4.38;;;3.00;;
19861;SDS011;10093;48.148;8.542;2023-02-15T18:16:25;2.88;;;1.23;;
19861;SDS011;10093;48.148;8.542;2023-02-15T18:18:51;3.10;;;1.90;;
19861;SDS011;10093;48.148;8.542;2023-02-15T18:21:18;7.35;;;2.50;;
19861;SDS011;10093;48.148;8.542;2023-02-15T18:23:44;14.80;;;7.10;;
19861;SDS011;10093;48.148;8.542;2023-02-15T18:26:11;10.18;;;5.25;;
19861;SDS011;10093;48.148;8.542;2023-02-15T18:28:43;7.00;;;3.00;;
19861;SDS011;10093;48.148;8.542;2023-02-15T18:31:09;7.90;;;3.70;;
19861;SDS011;10093;48.148;8.542;2023-02-15T18:33:45;8.73;;;3.95;;
19861;SDS011;10093;48.148;8.542;2023-02-15T18:36:21;8.63;;;4.38;;
19861;SDS011;10093;48.148;8.542;2023-02-15T18:38:51;10.48;;;3.65;;
19861;SDS011;10093;48.148;8.542;2023-02-15T18:41:18;90.53;;;41.90;;
19861;SDS011;10093;48.148;8.542;2023-02-15T18:43:45;74.90;;;38.03;;
19861;SDS011;10093;48.148;8.542;2023-02-15T18:46:12;42.80;;;21.35;;
19861;SDS011;10093;48.148;8.542;2023-02-15T18:48:39;19.83;;;9.35;;
19861;SDS011;10093;48.148;8.542;2023-02-15T18:53:51;6.03;;;2.72;;
19861;SDS011;10093;48.148;8.542;2023-02-15T18:56:18;6.15;;;3.97;;
19861;SDS011;10093;48.148;8.542;2023-02-15T18:58:45;10.73;;;4.80;;